createdAt,value
2022-12-19T00:00:20.823Z,93.91
2022-12-19T00:01:24.110Z,93.85
2022-12-19T00:02:29.311Z,93.93
2022-12-19T00:04:13.164Z,93.97
2022-12-19T00:05:16.481Z,93.98
2022-12-19T00:06:22.132Z,93.98
2022-12-19T00:08:04.295Z,94.10
2022-12-19T00:09:20.379Z,94.10
2022-12-19T00:10:25.192Z,94.08
2022-12-19T00:12:01.946Z,94.15
2022-12-19T00:13:11.049Z,94.14
2022-12-19T00:14:21.552Z,94.19
2022-12-19T00:15:56.504Z,94.15
2022-12-19T00:16:59.993Z,94.14
2022-12-19T00:18:03.737Z,94.27
2022-12-19T00:19:41.599Z,94.27
2022-12-19T00:20:44.551Z,94.36
2022-12-19T00:21:47.532Z,94.43
2022-12-19T00:23:31.518Z,94.43
2022-12-19T00:24:34.537Z,94.50
2022-12-19T00:25:37.695Z,94.54
2022-12-19T00:27:18.870Z,94.61
2022-12-19T00:28:23.965Z,94.68
2022-12-19T00:29:26.989Z,94.65
2022-12-19T00:31:02.356Z,94.71
2022-12-19T00:32:06.076Z,94.67
2022-12-19T00:33:12.065Z,94.65
2022-12-19T00:34:51.082Z,94.60
2022-12-19T00:35:55.565Z,94.76
2022-12-19T00:37:03.635Z,94.81
2022-12-19T00:38:41.581Z,94.81
2022-12-19T00:39:49.135Z,94.81
2022-12-19T00:40:52.080Z,94.90
2022-12-19T00:42:28.213Z,94.96
2022-12-19T00:43:41.202Z,94.97
2022-12-19T00:44:44.063Z,95.04
2022-12-19T00:46:21.236Z,94.98
2022-12-19T00:47:32.944Z,95.18
2022-12-19T00:48:35.920Z,95.08
2022-12-19T00:50:10.772Z,95.14
2022-12-19T00:51:13.639Z,95.24
2022-12-19T00:52:16.572Z,95.16
2022-12-19T00:53:55.684Z,95.28
2022-12-19T00:55:05.048Z,95.19
2022-12-19T00:56:16.751Z,95.22
2022-12-19T00:58:00.547Z,95.40
2022-12-19T00:59:03.834Z,95.44
2022-12-19T01:00:17.836Z,95.65
2022-12-19T01:01:23.202Z,95.67
2022-12-19T01:02:29.662Z,95.76
2022-12-19T01:04:39.872Z,95.82
2022-12-19T01:05:47.739Z,95.94
2022-12-19T01:06:52.731Z,96.00
2022-12-19T01:08:33.224Z,96.18
2022-12-19T01:09:36.252Z,96.34
2022-12-19T01:10:40.254Z,96.28
2022-12-19T01:12:14.865Z,96.47
2022-12-19T01:13:22.019Z,96.50
2022-12-19T01:14:28.962Z,96.71
2022-12-19T01:16:03.871Z,96.74
2022-12-19T01:17:07.356Z,96.79
2022-12-19T01:18:10.099Z,96.94
2022-12-19T01:19:50.480Z,97.10
2022-12-19T01:20:53.399Z,97.26
2022-12-19T01:21:56.354Z,97.27
2022-12-19T01:23:32.538Z,97.38
2022-12-19T01:24:35.458Z,97.43
2022-12-19T01:25:40.494Z,97.38
2022-12-19T01:27:19.999Z,97.52
2022-12-19T01:28:24.286Z,97.48
2022-12-19T01:29:27.337Z,97.55
2022-12-19T01:31:20.824Z,97.62
2022-12-19T01:32:24.225Z,97.66
2022-12-19T01:33:27.081Z,97.76
2022-12-19T01:35:04.297Z,97.87
2022-12-19T01:36:19.010Z,97.79
2022-12-19T01:37:25.969Z,97.95
2022-12-19T01:39:00.874Z,97.78
2022-12-19T01:40:05.684Z,97.85
2022-12-19T01:41:08.711Z,97.91
2022-12-19T01:42:43.328Z,97.92
2022-12-19T01:43:48.474Z,98.02
2022-12-19T01:44:51.310Z,98.00
2022-12-19T01:46:38.159Z,98.11
2022-12-19T01:47:41.371Z,98.14
2022-12-19T01:48:46.795Z,98.24
2022-12-19T01:50:22.455Z,98.30
2022-12-19T01:51:42.537Z,98.30
2022-12-19T01:52:45.379Z,98.44
2022-12-19T01:54:29.866Z,98.74
2022-12-19T01:55:32.993Z,98.70
2022-12-19T01:56:35.841Z,98.58
2022-12-19T01:58:10.911Z,98.55
2022-12-19T01:59:13.884Z,98.54
2022-12-19T02:00:17.437Z,98.56
2022-12-19T02:01:21.258Z,98.67
2022-12-19T02:02:37.860Z,98.57
2022-12-19T02:04:13.278Z,98.58
2022-12-19T02:05:18.771Z,98.79
2022-12-19T02:06:21.801Z,98.79
2022-12-19T02:08:08.035Z,98.81
2022-12-19T02:09:12.923Z,98.79
2022-12-19T02:10:15.688Z,98.89
2022-12-19T02:11:51.950Z,98.92
2022-12-19T02:12:54.916Z,98.91
2022-12-19T02:13:58.255Z,98.85
2022-12-19T02:15:35.378Z,98.86
2022-12-19T02:16:38.236Z,98.89
2022-12-19T02:17:41.703Z,98.86
2022-12-19T02:19:22.165Z,98.98
2022-12-19T02:20:25.081Z,99.00
2022-12-19T02:21:27.921Z,98.96
2022-12-19T02:23:11.024Z,99.00
2022-12-19T02:24:15.642Z,99.03
2022-12-19T02:25:21.763Z,99.00
2022-12-19T02:26:56.698Z,99.07
2022-12-19T02:27:59.759Z,99.07
2022-12-19T02:29:03.048Z,99.06
2022-12-19T02:30:37.773Z,99.24
2022-12-19T02:31:44.701Z,99.24
2022-12-19T02:32:47.965Z,99.48
2022-12-19T02:34:22.694Z,99.36
2022-12-19T02:35:30.916Z,99.27
2022-12-19T02:36:38.647Z,99.37
2022-12-19T02:38:20.925Z,99.50
2022-12-19T02:39:23.807Z,99.50
2022-12-19T02:40:29.619Z,99.52
2022-12-19T02:42:08.718Z,99.51
2022-12-19T02:43:18.343Z,99.52
2022-12-19T02:44:21.427Z,99.46
2022-12-19T02:46:09.423Z,99.47
2022-12-19T02:47:12.778Z,99.49
2022-12-19T02:48:19.273Z,99.48
2022-12-19T02:50:06.533Z,99.52
2022-12-19T02:51:09.402Z,99.51
2022-12-19T02:52:12.352Z,99.52
2022-12-19T02:53:47.495Z,99.57
2022-12-19T02:54:51.133Z,99.54
2022-12-19T02:55:54.206Z,99.54
2022-12-19T02:57:34.539Z,99.54
2022-12-19T02:58:37.557Z,99.57
2022-12-19T02:59:43.278Z,99.71
2022-12-19T03:00:18.254Z,99.71
2022-12-19T03:01:22.419Z,99.71
2022-12-19T03:02:27.293Z,99.71
2022-12-19T03:04:19.686Z,99.63
2022-12-19T03:05:23.129Z,99.59
2022-12-19T03:06:26.014Z,99.55
2022-12-19T03:08:02.225Z,99.61
2022-12-19T03:09:08.438Z,99.62
2022-12-19T03:10:12.484Z,99.62
2022-12-19T03:11:47.426Z,99.58
2022-12-19T03:12:57.628Z,99.60
2022-12-19T03:14:03.456Z,99.57
2022-12-19T03:15:38.111Z,99.67
2022-12-19T03:16:41.183Z,99.62
2022-12-19T03:17:44.569Z,99.65
2022-12-19T03:19:19.783Z,99.60
2022-12-19T03:20:22.850Z,99.58
2022-12-19T03:21:26.096Z,99.64
2022-12-19T03:23:01.005Z,99.76
2022-12-19T03:24:04.625Z,99.78
2022-12-19T03:25:07.544Z,99.77
2022-12-19T03:26:42.747Z,99.70
2022-12-19T03:27:45.650Z,99.85
2022-12-19T03:28:48.928Z,99.81
2022-12-19T03:30:23.768Z,99.93
2022-12-19T03:31:27.578Z,99.96
2022-12-19T03:32:30.646Z,99.99
2022-12-19T03:34:05.652Z,99.99
2022-12-19T03:35:09.304Z,99.99
2022-12-19T03:36:12.426Z,99.99
2022-12-19T03:37:48.569Z,99.99
2022-12-19T03:38:51.341Z,99.99
2022-12-19T03:39:55.219Z,99.99
2022-12-19T03:41:30.210Z,99.99
2022-12-19T03:42:33.586Z,99.99
2022-12-19T03:43:37.383Z,99.99
2022-12-19T03:45:12.733Z,99.99
2022-12-19T03:46:16.191Z,99.99
2022-12-19T03:47:19.176Z,99.99
2022-12-19T03:48:54.387Z,99.97
2022-12-19T03:49:59.966Z,99.99
2022-12-19T03:51:02.788Z,99.99
2022-12-19T03:52:44.086Z,99.99
2022-12-19T03:53:47.092Z,99.98
2022-12-19T03:54:50.465Z,99.99
2022-12-19T03:56:25.509Z,99.99
2022-12-19T03:57:29.203Z,99.91
2022-12-19T03:58:32.303Z,99.99
2022-12-19T04:00:18.046Z,99.99
2022-12-19T04:01:21.194Z,99.99
2022-12-19T04:02:24.953Z,99.95
2022-12-19T04:04:00.573Z,99.99
2022-12-19T04:05:03.594Z,99.99
2022-12-19T04:06:06.669Z,99.99
2022-12-19T04:07:42.145Z,99.99
2022-12-19T04:08:45.039Z,99.99
2022-12-19T04:09:48.061Z,99.99
2022-12-19T04:11:22.813Z,99.99
2022-12-19T04:12:25.837Z,99.99
2022-12-19T04:13:28.722Z,99.99
2022-12-19T04:15:04.724Z,99.99
2022-12-19T04:16:08.065Z,99.99
2022-12-19T04:17:11.169Z,99.99
2022-12-19T04:18:45.905Z,99.99
2022-12-19T04:19:48.687Z,99.99
2022-12-19T04:20:51.611Z,99.99
2022-12-19T04:22:27.146Z,99.99
2022-12-19T04:23:30.144Z,99.99
2022-12-19T04:24:33.114Z,99.99
2022-12-19T04:26:15.445Z,99.99
2022-12-19T04:27:18.659Z,99.99
2022-12-19T04:28:21.799Z,99.99
2022-12-19T04:29:56.495Z,99.99
2022-12-19T04:30:59.546Z,99.99
2022-12-19T04:32:02.939Z,99.99
2022-12-19T04:33:37.869Z,99.99
2022-12-19T04:34:47.072Z,99.99
2022-12-19T04:35:50.129Z,99.99
2022-12-19T04:37:24.871Z,99.99
2022-12-19T04:38:27.900Z,99.99
2022-12-19T04:39:31.209Z,99.99
2022-12-19T04:41:06.316Z,99.99
2022-12-19T04:42:09.300Z,99.99
2022-12-19T04:43:12.320Z,99.99
2022-12-19T04:44:47.170Z,99.99
2022-12-19T04:45:55.560Z,99.99
2022-12-19T04:47:00.564Z,99.99
2022-12-19T04:48:35.779Z,99.99
2022-12-19T04:49:39.149Z,99.99
2022-12-19T04:50:42.521Z,99.99
2022-12-19T04:52:17.522Z,99.99
2022-12-19T04:53:21.695Z,99.99
2022-12-19T04:54:24.687Z,99.99
2022-12-19T04:55:59.329Z,99.99
2022-12-19T04:57:02.370Z,99.99
2022-12-19T04:58:05.500Z,99.99
2022-12-19T04:59:45.688Z,99.99
2022-12-19T05:00:17.409Z,99.99
2022-12-19T05:01:20.495Z,99.99
2022-12-19T05:02:24.395Z,99.99
2022-12-19T05:04:06.976Z,99.99
2022-12-19T05:05:46.263Z,99.99
2022-12-19T05:06:49.335Z,99.99
2022-12-19T05:07:52.890Z,99.99
2022-12-19T05:09:28.286Z,99.99
2022-12-19T05:10:31.570Z,99.99
2022-12-19T05:11:34.639Z,99.99
2022-12-19T05:13:09.473Z,99.99
2022-12-19T05:14:12.403Z,99.99
2022-12-19T05:15:15.566Z,99.99
2022-12-19T05:16:53.745Z,99.99
2022-12-19T05:17:59.297Z,99.99
2022-12-19T05:19:02.832Z,99.99
2022-12-19T05:20:37.785Z,99.99
2022-12-19T05:21:40.666Z,99.99
2022-12-19T05:22:44.172Z,99.99
2022-12-19T05:24:30.579Z,99.99
2022-12-19T05:25:34.639Z,99.99
2022-12-19T05:26:37.733Z,99.99
2022-12-19T05:28:12.405Z,99.99
2022-12-19T05:29:15.429Z,99.99
2022-12-19T05:30:18.389Z,99.99
2022-12-19T05:31:53.768Z,99.99
2022-12-19T05:32:56.891Z,99.99
2022-12-19T05:34:00.124Z,99.99
2022-12-19T05:35:35.384Z,99.99
2022-12-19T05:36:38.623Z,99.99
2022-12-19T05:37:42.208Z,99.99
2022-12-19T05:39:17.281Z,99.99
2022-12-19T05:40:20.856Z,99.99
2022-12-19T05:41:24.328Z,99.99
2022-12-19T05:43:04.665Z,99.99
2022-12-19T05:44:07.649Z,99.99
2022-12-19T05:45:10.718Z,99.99
2022-12-19T05:46:45.840Z,99.99
2022-12-19T05:47:48.926Z,99.99
2022-12-19T05:49:01.299Z,99.99
2022-12-19T05:50:37.710Z,99.99
2022-12-19T05:51:41.159Z,99.99
2022-12-19T05:52:44.368Z,99.99
2022-12-19T05:54:19.467Z,99.99
2022-12-19T05:55:22.588Z,99.99
2022-12-19T05:56:25.531Z,99.99
2022-12-19T05:58:00.469Z,99.99
2022-12-19T05:59:03.468Z,99.99
2022-12-19T06:00:17.777Z,99.99
2022-12-19T06:01:20.871Z,99.99
2022-12-19T06:02:24.637Z,99.99
2022-12-19T06:04:01.047Z,99.99
2022-12-19T06:05:04.067Z,99.99
2022-12-19T06:06:07.040Z,99.99
2022-12-19T06:07:42.029Z,99.99
2022-12-19T06:08:45.469Z,99.99
2022-12-19T06:09:48.424Z,99.99
2022-12-19T06:11:23.489Z,99.99
2022-12-19T06:12:26.496Z,99.99
2022-12-19T06:13:30.914Z,99.99
2022-12-19T06:15:05.848Z,99.99
2022-12-19T06:16:08.881Z,99.99
2022-12-19T06:17:12.238Z,99.99
2022-12-19T06:18:50.903Z,99.99
2022-12-19T06:19:54.037Z,99.99
2022-12-19T06:20:57.046Z,99.99
2022-12-19T06:22:40.920Z,99.99
2022-12-19T06:23:43.827Z,99.99
2022-12-19T06:24:46.809Z,99.99
2022-12-19T06:26:25.835Z,99.99
2022-12-19T06:27:28.703Z,99.99
2022-12-19T06:28:31.740Z,99.99
2022-12-19T06:30:06.565Z,99.99
2022-12-19T06:31:13.460Z,99.99
2022-12-19T06:32:17.112Z,99.99
2022-12-19T06:33:56.486Z,99.99
2022-12-19T06:35:45.176Z,99.99
2022-12-19T06:36:48.170Z,99.99
2022-12-19T06:38:31.085Z,99.99
2022-12-19T06:39:34.045Z,99.99
2022-12-19T06:40:37.065Z,99.99
2022-12-19T06:42:12.002Z,99.99
2022-12-19T06:43:15.000Z,99.99
2022-12-19T06:44:18.387Z,99.99
2022-12-19T06:45:53.519Z,99.99
2022-12-19T06:46:56.908Z,99.99
2022-12-19T06:47:59.778Z,99.99
2022-12-19T06:49:34.771Z,99.99
2022-12-19T06:50:37.948Z,99.99
2022-12-19T06:51:41.098Z,99.99
2022-12-19T06:53:22.293Z,99.99
2022-12-19T06:54:25.687Z,99.99
2022-12-19T06:55:28.694Z,99.99
2022-12-19T06:57:03.670Z,99.99
2022-12-19T06:58:06.949Z,99.99
2022-12-19T06:59:15.868Z,99.99
2022-12-19T07:00:18.439Z,99.99
2022-12-19T07:01:23.262Z,99.99
2022-12-19T07:02:27.773Z,99.99
2022-12-19T07:04:03.576Z,99.99
2022-12-19T07:05:06.597Z,99.99
2022-12-19T07:06:09.563Z,99.99
2022-12-19T07:07:44.671Z,99.99
2022-12-19T07:08:47.777Z,99.99
2022-12-19T07:09:51.882Z,99.99
2022-12-19T07:11:27.198Z,99.99
2022-12-19T07:12:29.996Z,99.99
2022-12-19T07:13:32.955Z,99.99
2022-12-19T07:15:07.849Z,99.99
2022-12-19T07:16:11.283Z,99.99
2022-12-19T07:17:14.616Z,99.99
2022-12-19T07:18:49.665Z,99.99
2022-12-19T07:19:55.129Z,99.99
2022-12-19T07:20:57.879Z,99.99
2022-12-19T07:22:33.574Z,99.99
2022-12-19T07:23:36.886Z,99.99
2022-12-19T07:24:40.017Z,99.99
2022-12-19T07:26:14.948Z,99.99
2022-12-19T07:27:18.269Z,99.99
2022-12-19T07:28:27.389Z,99.99
2022-12-19T07:30:03.572Z,99.99
2022-12-19T07:31:07.335Z,99.99
2022-12-19T07:32:10.783Z,99.99
2022-12-19T07:33:45.669Z,99.99
2022-12-19T07:34:48.846Z,99.99
2022-12-19T07:35:51.813Z,99.99
2022-12-19T07:37:26.907Z,99.99
2022-12-19T07:38:30.595Z,99.99
2022-12-19T07:39:33.863Z,99.99
2022-12-19T07:41:10.135Z,99.99
2022-12-19T07:42:14.184Z,99.99
2022-12-19T07:43:24.349Z,99.99
2022-12-19T07:44:59.526Z,99.99
2022-12-19T07:46:02.536Z,99.99
2022-12-19T07:47:05.579Z,99.99
2022-12-19T07:48:40.357Z,99.99
2022-12-19T07:49:43.340Z,99.99
2022-12-19T07:50:46.287Z,99.99
2022-12-19T07:52:21.269Z,99.99
2022-12-19T07:53:24.602Z,99.99
2022-12-19T07:54:27.536Z,99.99
2022-12-19T07:56:02.970Z,99.99
2022-12-19T07:57:06.797Z,99.99
2022-12-19T07:58:09.842Z,99.99
2022-12-19T07:59:45.273Z,99.99
2022-12-19T08:00:18.200Z,99.99
2022-12-19T08:01:21.782Z,99.99
2022-12-19T08:02:27.510Z,99.99
2022-12-19T08:04:05.924Z,99.99
2022-12-19T08:05:08.760Z,99.99
2022-12-19T08:06:12.023Z,99.99
2022-12-19T08:07:53.465Z,99.99
2022-12-19T08:08:56.307Z,99.99
2022-12-19T08:09:59.969Z,99.99
2022-12-19T08:11:35.227Z,99.99
2022-12-19T08:12:38.061Z,99.99
2022-12-19T08:13:48.837Z,99.99
2022-12-19T08:15:23.587Z,99.99
2022-12-19T08:16:27.091Z,99.99
2022-12-19T08:18:13.266Z,99.99
2022-12-19T08:19:48.150Z,99.99
2022-12-19T08:20:51.061Z,99.99
2022-12-19T08:21:53.757Z,99.99
2022-12-19T08:23:29.241Z,99.99
2022-12-19T08:24:32.336Z,99.99
2022-12-19T08:25:35.366Z,99.99
2022-12-19T08:27:19.025Z,99.99
2022-12-19T08:28:21.963Z,99.99
2022-12-19T08:29:24.901Z,99.99
2022-12-19T08:31:00.974Z,99.99
2022-12-19T08:32:05.563Z,99.99
2022-12-19T08:33:14.441Z,99.99
2022-12-19T08:34:49.275Z,99.99
2022-12-19T08:35:54.611Z,99.99
2022-12-19T08:36:57.567Z,99.99
2022-12-19T08:38:32.708Z,99.99
2022-12-19T08:39:35.896Z,99.99
2022-12-19T08:40:42.816Z,99.99
2022-12-19T08:42:21.460Z,99.99
2022-12-19T08:43:24.423Z,99.99
2022-12-19T08:44:27.515Z,99.99
2022-12-19T08:46:03.307Z,99.99
2022-12-19T08:47:06.853Z,99.99
2022-12-19T08:48:10.006Z,99.99
2022-12-19T08:49:46.359Z,99.99
2022-12-19T08:50:49.536Z,99.99
2022-12-19T08:51:52.528Z,99.99
2022-12-19T08:53:32.307Z,99.99
2022-12-19T08:54:35.359Z,99.99
2022-12-19T08:55:38.438Z,99.99
2022-12-19T08:57:13.098Z,99.99
2022-12-19T08:58:15.923Z,99.99
2022-12-19T08:59:30.429Z,99.99
2022-12-19T09:00:18.755Z,99.99
2022-12-19T09:01:34.945Z,99.99
2022-12-19T09:02:40.115Z,99.99
2022-12-19T09:06:59.783Z,99.99
2022-12-19T09:08:07.577Z,99.99
2022-12-19T09:09:10.685Z,99.99
2022-12-19T09:10:46.001Z,99.99
2022-12-19T09:11:53.987Z,99.99
2022-12-19T09:13:03.532Z,99.99
2022-12-19T09:14:38.612Z,99.99
2022-12-19T09:15:42.808Z,99.99
2022-12-19T09:16:46.507Z,99.99
2022-12-19T09:18:25.349Z,99.99
2022-12-19T09:19:34.679Z,99.99
2022-12-19T09:20:40.555Z,99.99
2022-12-19T09:22:20.308Z,99.99
2022-12-19T09:23:27.151Z,99.99
2022-12-19T09:24:32.560Z,99.99
2022-12-19T09:26:07.423Z,99.99
2022-12-19T09:27:14.609Z,99.99
2022-12-19T09:29:19.476Z,99.99
2022-12-19T09:30:59.732Z,99.99
2022-12-19T09:32:02.907Z,99.99
2022-12-19T09:33:06.001Z,99.99
2022-12-19T09:34:44.649Z,99.99
2022-12-19T09:35:47.703Z,99.99
2022-12-19T09:36:56.157Z,99.99
2022-12-19T09:38:43.940Z,99.99
2022-12-19T09:39:46.861Z,99.99
2022-12-19T09:40:56.206Z,99.99
2022-12-19T09:42:39.233Z,99.99
2022-12-19T09:43:47.235Z,99.99
2022-12-19T09:44:53.917Z,99.99
2022-12-19T09:46:47.330Z,99.99
2022-12-19T09:47:52.008Z,99.99
2022-12-19T09:49:10.360Z,99.99
2022-12-19T09:50:45.883Z,99.99
2022-12-19T09:52:02.850Z,99.99
2022-12-19T09:53:07.339Z,99.99
2022-12-19T09:54:46.516Z,99.99
2022-12-19T09:55:50.201Z,99.99
2022-12-19T09:56:53.124Z,99.99
2022-12-19T09:58:27.841Z,99.99
2022-12-19T09:59:44.381Z,99.99
2022-12-19T10:00:17.991Z,99.99
2022-12-19T10:01:21.082Z,99.99
2022-12-19T10:02:25.426Z,99.99
2022-12-19T10:04:02.683Z,99.99
2022-12-19T10:06:44.080Z,99.99
2022-12-19T10:12:49.939Z,99.99
2022-12-19T10:14:42.852Z,99.99
2022-12-19T10:15:46.184Z,99.99
2022-12-19T10:17:29.137Z,99.99
2022-12-19T10:19:06.786Z,99.99
2022-12-19T10:20:09.775Z,99.99
2022-12-19T10:21:12.537Z,99.99
2022-12-19T10:23:37.154Z,99.99
2022-12-19T10:24:41.226Z,99.99
2022-12-19T10:26:07.160Z,99.99
2022-12-19T10:28:05.525Z,99.99
2022-12-19T10:29:11.168Z,99.99
2022-12-19T10:30:16.482Z,99.99
2022-12-19T10:32:09.609Z,99.99
2022-12-19T10:33:20.767Z,99.99
2022-12-19T10:34:27.328Z,99.99
2022-12-19T10:36:09.542Z,99.99
2022-12-19T10:38:09.971Z,99.99
2022-12-19T10:39:13.881Z,99.99
2022-12-19T10:40:56.427Z,99.99
2022-12-19T10:41:59.362Z,99.99
2022-12-19T10:43:07.023Z,99.99
2022-12-19T10:45:07.896Z,99.99
2022-12-19T10:46:11.067Z,99.99
2022-12-19T10:47:14.822Z,99.99
2022-12-19T10:48:49.796Z,99.99
2022-12-19T10:49:52.968Z,99.99
2022-12-19T10:51:12.631Z,99.99
2022-12-19T10:52:47.366Z,99.99
2022-12-19T10:53:51.409Z,99.99
2022-12-19T10:54:56.241Z,99.99
2022-12-19T10:56:38.972Z,99.99
2022-12-19T10:57:43.511Z,99.99
2022-12-19T10:58:48.729Z,99.99
2022-12-19T11:00:17.872Z,99.99
2022-12-19T11:01:25.321Z,99.99
2022-12-19T11:02:42.040Z,99.99
2022-12-19T11:04:22.512Z,99.99
2022-12-19T11:05:29.778Z,99.99
2022-12-19T11:06:39.054Z,99.99
2022-12-19T11:08:14.299Z,99.99
2022-12-19T11:09:18.320Z,99.99
2022-12-19T11:18:54.275Z,99.99
2022-12-19T11:34:07.857Z,99.99
2022-12-19T11:35:10.713Z,99.99
2022-12-19T11:36:23.384Z,99.99
2022-12-19T11:38:01.597Z,99.99
2022-12-19T11:39:04.315Z,99.99
2022-12-19T11:40:07.985Z,99.99
2022-12-19T11:41:43.144Z,99.99
2022-12-19T11:42:47.619Z,99.99
2022-12-19T11:44:39.932Z,99.99
2022-12-19T11:46:21.150Z,99.99
2022-12-19T11:47:24.466Z,99.99
2022-12-19T11:48:27.308Z,99.99
2022-12-19T11:50:02.283Z,99.99
2022-12-19T11:51:06.296Z,99.99
2022-12-19T11:52:23.524Z,99.99
2022-12-19T11:54:44.476Z,99.99
2022-12-19T11:55:49.052Z,99.99
2022-12-19T11:57:02.166Z,99.99
2022-12-19T11:58:36.984Z,99.99
2022-12-19T11:59:41.654Z,99.99
2022-12-19T12:00:18.504Z,99.99
2022-12-19T12:01:21.579Z,99.99
2022-12-19T12:02:25.100Z,99.99
2022-12-19T12:04:08.996Z,99.99
2022-12-19T12:05:13.023Z,99.99
2022-12-19T12:06:17.254Z,99.99
2022-12-19T12:39:29.857Z,99.99
2022-12-19T12:40:36.093Z,99.99
2022-12-19T12:42:10.899Z,99.99
2022-12-19T12:43:13.808Z,99.99
2022-12-19T12:44:16.869Z,99.99
2022-12-19T12:46:09.852Z,99.99
2022-12-19T12:47:14.355Z,99.99
2022-12-19T12:48:17.441Z,99.99
2022-12-19T12:49:53.207Z,99.99
2022-12-19T12:51:01.022Z,99.99
2022-12-19T12:52:03.970Z,99.99
2022-12-19T12:53:40.639Z,99.99
2022-12-19T12:54:43.800Z,99.99
2022-12-19T12:55:46.758Z,99.99
2022-12-19T12:57:26.482Z,99.99
2022-12-19T12:58:33.632Z,99.99
2022-12-19T12:59:40.533Z,99.99
2022-12-19T13:00:17.776Z,99.99
2022-12-19T13:01:21.179Z,99.99
2022-12-19T13:02:26.010Z,99.99
2022-12-19T13:04:03.507Z,99.99
2022-12-19T13:05:06.723Z,99.99
2022-12-19T13:06:09.773Z,99.99
2022-12-19T13:07:44.850Z,99.99
2022-12-19T13:08:47.867Z,99.99
2022-12-19T13:09:52.336Z,99.99
2022-12-19T13:11:28.137Z,99.99
2022-12-19T13:12:32.106Z,99.99
2022-12-19T13:13:35.064Z,99.99
2022-12-19T13:15:10.042Z,99.99
2022-12-19T13:16:14.217Z,99.99
2022-12-19T13:17:17.885Z,99.99
2022-12-19T13:18:54.559Z,99.99
2022-12-19T13:20:09.873Z,99.99
2022-12-19T13:21:14.264Z,99.99
2022-12-19T13:22:49.286Z,99.99
2022-12-19T13:23:52.177Z,99.99
2022-12-19T13:25:02.358Z,99.99
2022-12-19T13:26:43.621Z,99.99
2022-12-19T13:27:47.873Z,99.99
2022-12-19T13:28:52.271Z,99.99
2022-12-19T13:30:27.771Z,99.99
2022-12-19T13:32:17.861Z,99.99
2022-12-19T13:33:22.781Z,99.99
2022-12-19T13:36:12.130Z,99.99
2022-12-19T13:41:18.866Z,99.99
2022-12-19T13:42:24.528Z,99.99
2022-12-19T13:44:03.091Z,99.99
2022-12-19T13:45:06.460Z,99.99
2022-12-19T13:46:09.306Z,99.99
2022-12-19T13:47:44.945Z,99.99
2022-12-19T13:48:49.463Z,99.99
2022-12-19T13:49:52.319Z,99.99
2022-12-19T13:51:28.537Z,99.99
2022-12-19T13:52:31.529Z,99.91
2022-12-19T13:53:34.771Z,99.91
2022-12-19T13:55:18.755Z,99.65
2022-12-19T13:56:21.610Z,99.74
2022-12-19T13:57:24.749Z,99.67
2022-12-19T13:58:59.794Z,99.67
2022-12-19T14:00:17.467Z,99.43
2022-12-19T14:01:27.610Z,99.42
2022-12-19T14:02:32.315Z,99.42
2022-12-19T14:04:16.822Z,99.30
2022-12-19T14:05:19.872Z,99.26
2022-12-19T14:07:15.508Z,99.10
2022-12-19T14:12:17.187Z,99.10
2022-12-19T14:15:20.068Z,99.04
2022-12-19T14:16:34.808Z,98.95
2022-12-19T14:18:51.450Z,98.98
2022-12-19T14:20:06.777Z,98.92
2022-12-19T14:23:36.850Z,98.93
2022-12-19T14:28:32.987Z,98.75
2022-12-19T14:30:36.947Z,98.56
2022-12-19T14:32:33.395Z,98.54
2022-12-19T14:39:33.702Z,98.45
2022-12-19T14:41:08.590Z,98.44
2022-12-19T14:42:12.785Z,98.44
2022-12-19T14:59:00.986Z,97.99
2022-12-19T15:01:21.154Z,98.32
2022-12-19T15:02:38.613Z,98.32
2022-12-19T15:03:44.183Z,98.43
2022-12-19T15:07:15.828Z,98.20
2022-12-19T15:08:18.666Z,98.31
2022-12-19T15:15:30.860Z,98.19
2022-12-19T15:17:06.214Z,98.27
2022-12-19T15:18:16.946Z,98.27
2022-12-19T15:19:20.096Z,98.27
2022-12-19T15:20:55.456Z,98.27
2022-12-19T15:21:58.431Z,98.27
2022-12-19T15:23:01.336Z,98.27
2022-12-19T15:24:45.424Z,98.36
2022-12-19T15:26:12.056Z,98.36
2022-12-19T15:27:15.111Z,98.36
2022-12-19T15:28:50.099Z,98.48
2022-12-19T15:30:02.166Z,98.44
2022-12-19T15:31:05.605Z,98.35
2022-12-19T15:32:41.621Z,98.35
2022-12-19T15:34:36.864Z,98.35
2022-12-19T15:35:49.166Z,98.48
2022-12-19T15:37:24.017Z,98.45
2022-12-19T15:38:26.969Z,98.58
2022-12-19T15:39:29.843Z,98.50
2022-12-19T15:41:08.934Z,98.59
2022-12-19T15:42:16.920Z,98.59
2022-12-19T15:44:07.356Z,98.70
2022-12-19T15:45:42.394Z,98.68
2022-12-19T15:46:54.258Z,98.66
2022-12-19T15:47:57.743Z,98.67
2022-12-19T15:49:33.009Z,98.67
2022-12-19T15:50:35.988Z,98.60
2022-12-19T15:51:38.894Z,98.36
2022-12-19T15:53:38.107Z,98.25
2022-12-19T15:55:30.086Z,98.15
2022-12-19T15:56:32.983Z,98.24
2022-12-19T15:58:08.082Z,98.07
2022-12-19T15:59:11.030Z,98.07
2022-12-19T16:00:17.581Z,97.99
2022-12-19T16:01:20.743Z,97.92
2022-12-19T16:02:25.382Z,97.87
2022-12-19T16:04:58.331Z,97.74
2022-12-19T16:06:06.810Z,97.73
2022-12-19T16:07:09.811Z,97.65
2022-12-19T16:08:44.824Z,97.57
2022-12-19T16:09:47.903Z,97.55
2022-12-19T16:10:54.501Z,97.46
2022-12-19T16:12:32.323Z,97.46
2022-12-19T16:13:35.297Z,97.39
2022-12-19T16:14:38.457Z,97.44
2022-12-19T16:16:21.637Z,97.27
2022-12-19T16:17:25.130Z,97.25
2022-12-19T16:18:28.123Z,97.12
2022-12-19T16:20:03.070Z,97.21
2022-12-19T16:21:05.992Z,97.21
2022-12-19T16:22:19.538Z,97.19
2022-12-19T16:23:54.318Z,97.19
2022-12-19T16:24:57.207Z,97.19
2022-12-19T16:26:00.286Z,97.00
2022-12-19T16:27:35.709Z,97.06
2022-12-19T16:28:38.744Z,97.06
2022-12-19T16:29:47.383Z,97.06
2022-12-19T16:31:31.004Z,96.85
2022-12-19T16:32:34.330Z,96.73
2022-12-19T16:33:37.211Z,96.80
2022-12-19T16:35:12.210Z,96.59
2022-12-19T16:36:57.647Z,96.59
2022-12-19T16:38:00.980Z,96.78
2022-12-19T16:39:35.939Z,96.76
2022-12-19T16:40:38.870Z,96.74
2022-12-19T16:41:49.432Z,96.74
2022-12-19T16:43:24.801Z,96.92
2022-12-19T16:44:27.918Z,97.02
2022-12-19T16:45:31.277Z,97.02
2022-12-19T16:47:12.835Z,97.02
2022-12-19T16:48:16.461Z,97.02
2022-12-19T16:49:19.458Z,97.05
2022-12-19T16:50:54.292Z,97.01
2022-12-19T16:51:57.475Z,96.85
2022-12-19T16:53:00.630Z,96.84
2022-12-19T16:54:35.653Z,96.76
2022-12-19T16:55:38.682Z,96.55
2022-12-19T16:56:41.676Z,96.58
2022-12-19T16:58:16.586Z,96.45
2022-12-19T16:59:27.511Z,96.53
2022-12-19T17:00:18.268Z,96.57
2022-12-19T17:01:21.918Z,96.66
2022-12-19T17:02:26.845Z,96.56
2022-12-19T17:04:03.453Z,96.44
2022-12-19T17:05:47.161Z,96.33
2022-12-19T17:06:50.509Z,96.31
2022-12-19T17:07:53.802Z,96.26
2022-12-19T17:09:28.878Z,96.21
2022-12-19T17:10:32.370Z,96.10
2022-12-19T17:11:35.706Z,96.12
2022-12-19T17:13:10.680Z,96.19
2022-12-19T17:14:13.685Z,96.22
2022-12-19T17:15:16.590Z,96.29
2022-12-19T17:16:51.799Z,96.27
2022-12-19T17:17:56.380Z,96.24
2022-12-19T17:18:59.331Z,96.14
2022-12-19T17:20:35.222Z,96.14
2022-12-19T17:21:38.383Z,96.11
2022-12-19T17:22:41.403Z,96.05
2022-12-19T17:24:16.402Z,96.06
2022-12-19T17:25:19.209Z,95.96
2022-12-19T17:26:24.009Z,95.96
2022-12-19T17:27:58.598Z,95.91
2022-12-19T17:29:01.661Z,95.93
2022-12-19T17:30:04.515Z,95.73
2022-12-19T17:31:40.537Z,95.71
2022-12-19T17:32:44.341Z,95.73
2022-12-19T17:33:47.256Z,95.63
2022-12-19T17:35:27.547Z,95.64
2022-12-19T17:36:38.617Z,95.73
2022-12-19T17:37:41.715Z,95.84
2022-12-19T17:39:16.533Z,95.73
2022-12-19T17:40:19.442Z,95.69
2022-12-19T17:41:22.367Z,95.74
2022-12-19T17:42:57.205Z,95.74
2022-12-19T17:44:00.150Z,95.87
2022-12-19T17:45:02.825Z,95.85
2022-12-19T17:46:38.256Z,95.61
2022-12-19T17:47:41.625Z,95.75
2022-12-19T17:48:53.942Z,95.64
2022-12-19T17:50:28.755Z,95.44
2022-12-19T17:51:31.691Z,95.34
2022-12-19T17:52:34.717Z,95.08
2022-12-19T17:54:09.837Z,94.96
2022-12-19T17:55:19.692Z,94.90
2022-12-19T17:56:22.631Z,94.77
2022-12-19T17:57:57.485Z,94.45
2022-12-19T17:59:00.597Z,94.47
2022-12-19T18:00:17.467Z,94.06
2022-12-19T18:01:28.440Z,94.06
2022-12-19T18:02:33.389Z,94.18
2022-12-19T18:04:09.744Z,93.80
2022-12-19T18:05:12.914Z,93.80
2022-12-19T18:06:18.243Z,93.61
2022-12-19T18:07:53.033Z,93.48
2022-12-19T18:08:55.864Z,93.46
2022-12-19T18:09:58.631Z,93.41
2022-12-19T18:11:38.403Z,93.10
2022-12-19T18:12:44.762Z,93.12